createdAt,value
2023-02-04T00:00:17.181Z,9.90
2023-02-04T00:02:19.920Z,9.40
2023-02-04T00:04:22.719Z,10.83
2023-02-04T00:06:25.844Z,6.70
2023-02-04T00:08:28.631Z,10.00
2023-02-04T00:10:31.678Z,8.97
2023-02-04T00:12:34.790Z,11.40
2023-02-04T00:14:39.237Z,11.33
2023-02-04T00:16:41.950Z,10.67
2023-02-04T00:18:44.747Z,9.50
2023-02-04T00:20:47.520Z,6.80
2023-02-04T00:22:51.425Z,8.10
2023-02-04T00:24:54.188Z,9.17
2023-02-04T00:26:57.098Z,9.30
2023-02-04T00:28:59.851Z,12.67
2023-02-04T00:31:04.279Z,8.93
2023-02-04T00:33:07.000Z,9.30
2023-02-04T00:35:09.951Z,10.67
2023-02-04T00:37:12.649Z,9.30
2023-02-04T00:39:15.707Z,11.07
2023-02-04T00:41:18.472Z,10.83
2023-02-04T00:43:21.165Z,8.00
2023-02-04T00:45:24.010Z,8.47
2023-02-04T00:47:28.480Z,9.63
2023-02-04T00:49:31.218Z,10.27
2023-02-04T00:51:33.944Z,10.27
2023-02-04T00:53:36.990Z,11.87
2023-02-04T00:55:39.657Z,11.60
2023-02-04T00:57:42.362Z,11.93
2023-02-04T00:59:45.119Z,9.50
2023-02-04T01:01:48.317Z,9.17
2023-02-04T01:03:52.291Z,8.67
2023-02-04T01:05:55.019Z,9.20
2023-02-04T01:07:57.693Z,10.57
2023-02-04T01:10:00.882Z,11.10
2023-02-04T01:12:03.635Z,9.07
2023-02-04T01:14:06.429Z,7.70
2023-02-04T01:16:09.203Z,11.37
2023-02-04T01:18:13.233Z,9.53
2023-02-04T01:20:17.472Z,9.37
2023-02-04T01:22:20.182Z,8.73
2023-02-04T01:24:22.924Z,10.60
2023-02-04T01:26:26.016Z,10.47
2023-02-04T01:28:28.821Z,8.80
2023-02-04T01:30:31.858Z,7.67
2023-02-04T01:32:34.691Z,7.93
2023-02-04T01:34:37.452Z,9.40
2023-02-04T01:36:44.298Z,9.03
2023-02-04T01:38:47.012Z,9.43
2023-02-04T01:40:50.069Z,11.60
2023-02-04T01:42:52.861Z,9.60
2023-02-04T01:44:55.591Z,8.87
2023-02-04T01:46:58.310Z,10.40
2023-02-04T01:49:01.332Z,9.13
2023-02-04T01:51:05.693Z,8.93
2023-02-04T01:53:10.350Z,10.83
2023-02-04T01:55:14.976Z,9.23
2023-02-04T01:57:18.069Z,9.77
2023-02-04T01:59:20.805Z,8.03
2023-02-04T02:01:35.720Z,9.73
2023-02-04T02:03:38.531Z,11.90
2023-02-04T02:05:42.519Z,7.70
2023-02-04T02:07:45.258Z,10.40
2023-02-04T02:09:49.220Z,11.40
2023-02-04T02:11:51.924Z,8.50
2023-02-04T02:13:55.209Z,9.30
2023-02-04T02:15:57.921Z,11.27
2023-02-04T02:18:00.980Z,11.50
2023-02-04T02:20:03.919Z,10.17
2023-02-04T02:22:08.413Z,8.83
2023-02-04T02:24:27.341Z,10.77
2023-02-04T02:26:30.047Z,9.90
2023-02-04T02:28:32.756Z,10.07
2023-02-04T02:30:35.925Z,11.87
2023-02-04T02:32:38.914Z,9.40
2023-02-04T02:34:41.623Z,10.87
2023-02-04T02:36:44.369Z,10.57
2023-02-04T02:38:47.466Z,11.10
2023-02-04T02:40:52.549Z,11.97
2023-02-04T02:42:55.264Z,11.57
2023-02-04T02:44:57.952Z,10.87
2023-02-04T02:47:01.230Z,12.77
2023-02-04T02:49:03.882Z,12.03
2023-02-04T02:51:06.790Z,12.13
2023-02-04T02:53:17.832Z,12.00
2023-02-04T02:55:21.322Z,10.53
2023-02-04T02:57:25.300Z,12.70
2023-02-04T02:59:28.076Z,15.60
2023-02-04T03:01:31.207Z,14.07
2023-02-04T03:03:34.534Z,14.00
2023-02-04T03:05:38.248Z,12.13
2023-02-04T03:07:40.997Z,12.20
2023-02-04T03:09:44.122Z,12.60
2023-02-04T03:11:46.815Z,13.37
2023-02-04T03:13:50.813Z,12.80
2023-02-04T03:15:53.677Z,10.80
2023-02-04T03:17:57.247Z,11.90
2023-02-04T03:19:59.980Z,13.20
2023-02-04T03:22:02.689Z,12.43
2023-02-04T03:24:05.835Z,11.33
2023-02-04T03:26:08.810Z,12.97
2023-02-04T03:28:11.655Z,13.87
2023-02-04T03:30:15.934Z,12.40
2023-02-04T03:32:18.696Z,12.00
2023-02-04T03:34:21.978Z,13.00
2023-02-04T03:36:24.756Z,12.40
2023-02-04T03:38:27.499Z,12.10
2023-02-04T03:40:31.111Z,14.33
2023-02-04T03:42:34.839Z,11.67
2023-02-04T03:44:37.577Z,11.77
2023-02-04T03:46:41.663Z,11.93
2023-02-04T03:48:44.409Z,11.27
2023-02-04T03:50:47.499Z,12.20
2023-02-04T03:52:51.590Z,17.30
2023-02-04T03:54:54.272Z,9.90
2023-02-04T03:56:57.046Z,12.00
2023-02-04T03:59:00.114Z,12.37
2023-02-04T04:01:02.953Z,13.67
2023-02-04T04:03:07.015Z,11.93
2023-02-04T04:05:09.921Z,12.13
2023-02-04T04:07:13.496Z,15.00
2023-02-04T04:09:16.182Z,11.20
2023-02-04T04:11:18.918Z,12.10
2023-02-04T04:13:21.611Z,14.43
2023-02-04T04:15:25.299Z,11.83
2023-02-04T04:17:28.031Z,13.20
2023-02-04T04:19:33.177Z,12.30
2023-02-04T04:21:36.004Z,12.97
2023-02-04T04:23:39.309Z,12.87
2023-02-04T04:25:42.013Z,13.37
2023-02-04T04:27:44.731Z,11.10
2023-02-04T04:29:47.450Z,11.67
2023-02-04T04:31:50.518Z,11.63
2023-02-04T04:33:53.261Z,13.77
2023-02-04T04:35:57.354Z,12.93
2023-02-04T04:38:00.080Z,11.20
2023-02-04T04:40:04.283Z,13.07
2023-02-04T04:42:06.958Z,10.30
2023-02-04T04:44:09.712Z,11.10
2023-02-04T04:46:12.579Z,11.73
2023-02-04T04:48:15.830Z,11.47
2023-02-04T04:50:19.091Z,11.97
2023-02-04T04:52:23.092Z,12.07
2023-02-04T04:54:25.860Z,12.40
2023-02-04T04:56:28.911Z,14.67
2023-02-04T04:58:32.751Z,10.57
2023-02-04T05:00:35.594Z,12.03
2023-02-04T05:02:38.352Z,12.00
2023-02-04T05:04:41.628Z,11.90
2023-02-04T05:06:45.195Z,10.60
2023-02-04T05:08:49.835Z,11.40
2023-02-04T05:10:52.536Z,12.07
2023-02-04T05:12:55.784Z,11.63
2023-02-04T05:14:58.501Z,11.37
2023-02-04T05:17:01.208Z,11.30
2023-02-04T05:19:03.910Z,10.97
2023-02-04T05:21:07.160Z,11.43
2023-02-04T05:23:09.870Z,11.00
2023-02-04T05:25:13.988Z,11.70
2023-02-04T05:27:16.793Z,11.13
2023-02-04T05:29:20.020Z,12.87
2023-02-04T05:31:24.248Z,11.33
2023-02-04T05:33:27.135Z,10.93
2023-02-04T05:35:29.814Z,11.47
2023-02-04T05:37:33.000Z,12.53
2023-02-04T05:39:35.783Z,12.03
2023-02-04T05:41:39.830Z,11.73
2023-02-04T05:43:43.040Z,12.43
2023-02-04T05:45:47.200Z,11.50
2023-02-04T05:47:50.034Z,10.30
2023-02-04T05:49:54.894Z,11.20
2023-02-04T05:52:00.194Z,10.77
2023-02-04T05:54:03.373Z,10.60
2023-02-04T05:56:06.532Z,11.50
2023-02-04T05:58:10.644Z,12.30
2023-02-04T06:00:14.055Z,10.93
2023-02-04T06:02:17.180Z,11.47
2023-02-04T06:04:19.983Z,13.13
2023-02-04T06:06:22.705Z,11.97
2023-02-04T06:08:25.561Z,10.70
2023-02-04T06:10:28.813Z,10.80
2023-02-04T06:12:32.009Z,11.20
2023-02-04T06:14:36.065Z,10.60
2023-02-04T06:16:38.857Z,9.90
2023-02-04T06:18:42.113Z,12.00
2023-02-04T06:20:44.916Z,9.80
2023-02-04T06:22:51.636Z,13.10
2023-02-04T06:24:54.388Z,10.87
2023-02-04T06:26:57.440Z,11.10
2023-02-04T06:29:00.171Z,10.00
2023-02-04T06:31:04.329Z,11.97
2023-02-04T06:33:14.916Z,10.63
2023-02-04T06:35:17.879Z,10.13
2023-02-04T06:37:21.069Z,9.73
2023-02-04T06:39:24.425Z,10.53
2023-02-04T06:41:27.384Z,11.10
2023-02-04T06:43:30.068Z,10.37
2023-02-04T06:45:32.777Z,10.73
2023-02-04T06:47:36.749Z,10.07
2023-02-04T06:49:39.963Z,9.90
2023-02-04T06:51:42.611Z,10.37
2023-02-04T06:53:45.901Z,10.10
2023-02-04T06:55:49.120Z,10.47
2023-02-04T06:57:51.773Z,11.20
2023-02-04T06:59:54.650Z,9.53
2023-02-04T07:01:57.337Z,10.77
2023-02-04T07:04:01.676Z,9.20
2023-02-04T07:06:04.372Z,9.33
2023-02-04T07:08:07.076Z,9.13
2023-02-04T07:10:10.688Z,9.63
2023-02-04T07:12:15.271Z,9.43
2023-02-04T07:14:19.507Z,9.33
2023-02-04T07:16:22.249Z,9.47
2023-02-04T07:18:25.301Z,9.10
2023-02-04T07:20:29.279Z,9.60
2023-02-04T07:22:31.968Z,8.10
2023-02-04T07:24:34.670Z,8.93
2023-02-04T07:26:37.958Z,8.40
2023-02-04T07:28:42.346Z,9.57
2023-02-04T07:30:45.114Z,7.27
2023-02-04T07:32:47.930Z,9.30
2023-02-04T07:34:50.692Z,8.60
2023-02-04T07:36:54.768Z,8.23
2023-02-04T07:39:00.086Z,8.37
2023-02-04T07:41:02.837Z,8.33
2023-02-04T07:43:05.675Z,7.50
2023-02-04T07:45:09.153Z,7.57
2023-02-04T07:47:12.627Z,6.67
2023-02-04T07:49:15.414Z,6.43
2023-02-04T07:51:18.219Z,7.60
2023-02-04T07:53:22.248Z,7.33
2023-02-04T07:55:25.380Z,7.53
2023-02-04T07:57:29.224Z,7.77
2023-02-04T07:59:32.060Z,6.77
2023-02-04T08:01:35.386Z,7.60
2023-02-04T08:03:39.918Z,6.87
2023-02-04T08:05:43.793Z,6.50
2023-02-04T08:07:46.988Z,7.23
2023-02-04T08:09:51.043Z,7.03
2023-02-04T08:11:53.921Z,6.40
2023-02-04T08:13:56.665Z,6.00
2023-02-04T08:15:59.833Z,6.50
2023-02-04T08:18:02.661Z,6.47
2023-02-04T08:20:05.665Z,6.43
2023-02-04T08:22:08.516Z,6.10
2023-02-04T08:24:12.742Z,5.67
2023-02-04T08:26:16.923Z,6.00
2023-02-04T08:28:19.733Z,6.40
2023-02-04T08:30:22.709Z,8.57
2023-02-04T08:32:27.488Z,4.63
2023-02-04T08:34:30.225Z,6.23
2023-02-04T08:36:33.119Z,6.40
2023-02-04T08:38:36.392Z,5.50
2023-02-04T08:40:39.377Z,5.20
2023-02-04T08:42:43.360Z,6.00
2023-02-04T08:44:46.052Z,5.70
2023-02-04T08:46:49.134Z,5.23
2023-02-04T08:48:51.912Z,5.80
2023-02-04T08:50:54.607Z,6.80
2023-02-04T08:52:57.286Z,5.70
2023-02-04T08:55:00.497Z,5.07
2023-02-04T08:57:03.593Z,5.30
2023-02-04T08:59:07.691Z,6.20
2023-02-04T09:01:11.299Z,5.80
2023-02-04T09:03:14.083Z,5.97
2023-02-04T09:05:16.992Z,5.43
2023-02-04T09:07:19.786Z,5.77
2023-02-04T09:09:23.624Z,5.27
2023-02-04T09:11:27.536Z,5.20
2023-02-04T09:13:30.271Z,6.00
2023-02-04T09:15:34.708Z,5.37
2023-02-04T09:17:37.739Z,4.97
2023-02-04T09:19:40.493Z,5.30
2023-02-04T09:21:43.363Z,4.80
2023-02-04T09:23:46.912Z,5.50
2023-02-04T09:25:49.639Z,5.37
2023-02-04T09:27:52.328Z,5.13
2023-02-04T09:29:55.086Z,5.47
2023-02-04T09:31:59.760Z,5.30
2023-02-04T09:34:02.534Z,4.80
2023-02-04T09:36:05.778Z,5.10
2023-02-04T09:38:09.015Z,5.30
2023-02-04T09:40:14.866Z,4.60
2023-02-04T09:42:17.658Z,4.57
2023-02-04T09:44:21.535Z,4.50
2023-02-04T09:46:28.548Z,4.93
2023-02-04T09:48:32.626Z,4.70
2023-02-04T09:50:35.560Z,4.90
2023-02-04T09:52:38.770Z,5.60
2023-02-04T09:54:41.455Z,4.70
2023-02-04T09:56:44.187Z,4.73
2023-02-04T09:58:47.190Z,4.23
2023-02-04T10:00:57.035Z,4.03
2023-02-04T10:03:00.716Z,4.80
2023-02-04T10:05:04.928Z,4.87
2023-02-04T10:07:10.229Z,4.50
2023-02-04T10:09:13.047Z,4.40
2023-02-04T10:11:16.071Z,4.10
2023-02-04T10:13:20.170Z,4.47
2023-02-04T10:15:23.383Z,4.70
2023-02-04T10:17:26.100Z,4.60
2023-02-04T10:19:29.234Z,5.17
2023-02-04T10:21:34.650Z,6.17
2023-02-04T10:23:37.668Z,6.67
2023-02-04T10:25:40.340Z,5.87
2023-02-04T10:27:50.563Z,6.13
2023-02-04T10:29:57.278Z,6.43
2023-02-04T10:32:00.483Z,7.60
2023-02-04T10:34:07.944Z,8.07
2023-02-04T10:36:10.660Z,7.10
2023-02-04T10:38:14.631Z,7.20
2023-02-04T10:40:27.875Z,8.70
2023-02-04T10:42:31.128Z,10.73
2023-02-04T10:44:35.916Z,8.00
2023-02-04T10:46:38.636Z,9.73
2023-02-04T10:48:42.130Z,9.00
2023-02-04T10:50:44.919Z,10.63
2023-02-04T10:52:49.882Z,9.83
2023-02-04T10:54:53.408Z,9.60
2023-02-04T10:56:56.140Z,10.47
2023-02-04T10:58:58.845Z,9.03
2023-02-04T11:01:01.693Z,9.77
2023-02-04T11:03:05.436Z,10.83
2023-02-04T11:05:12.491Z,8.57
2023-02-04T11:07:15.186Z,11.17
2023-02-04T11:09:17.889Z,10.00
2023-02-04T11:11:25.039Z,8.70
2023-02-04T11:13:28.520Z,9.27
2023-02-04T11:15:40.565Z,10.97
2023-02-04T11:17:43.299Z,11.17
2023-02-04T11:19:46.427Z,11.97
2023-02-04T11:21:52.122Z,11.43
2023-02-04T11:24:09.487Z,11.80
2023-02-04T11:26:15.499Z,11.53
2023-02-04T11:28:26.389Z,12.70
2023-02-04T11:30:32.813Z,11.37
2023-02-04T11:32:41.935Z,11.20
2023-02-04T11:34:48.020Z,10.87
2023-02-04T11:36:56.317Z,10.63
2023-02-04T11:38:59.029Z,12.70
2023-02-04T11:41:01.752Z,13.00
2023-02-04T11:43:09.577Z,11.60
2023-02-04T11:45:16.545Z,11.87
2023-02-04T11:47:19.233Z,11.77
2023-02-04T11:49:22.178Z,11.93
2023-02-04T11:51:29.262Z,16.20
2023-02-04T11:53:32.294Z,12.50
2023-02-04T11:55:36.735Z,12.70
2023-02-04T11:57:40.869Z,14.87
2023-02-04T11:59:43.580Z,12.83
2023-02-04T12:01:47.579Z,12.47
2023-02-04T12:03:51.624Z,13.67
2023-02-04T12:05:56.082Z,13.23
2023-02-04T12:07:58.776Z,12.30
2023-02-04T12:10:11.987Z,14.20
2023-02-04T12:12:27.248Z,14.87
2023-02-04T12:14:31.033Z,13.07
2023-02-04T12:16:42.138Z,13.40
2023-02-04T12:18:46.140Z,14.27
2023-02-04T12:20:48.917Z,13.30
2023-02-04T12:22:51.673Z,12.10
2023-02-04T12:24:55.011Z,12.60
2023-02-04T12:27:00.463Z,13.27
2023-02-04T12:29:05.489Z,14.17
2023-02-04T12:31:08.667Z,13.60
2023-02-04T12:33:12.362Z,13.57
2023-02-04T12:35:17.796Z,12.53
2023-02-04T12:37:20.542Z,12.37
2023-02-04T12:39:23.689Z,13.17
2023-02-04T12:41:29.409Z,15.17
2023-02-04T12:43:32.170Z,15.17
2023-02-04T12:45:36.369Z,14.40
2023-02-04T12:47:39.297Z,13.10
2023-02-04T12:49:42.067Z,15.57
2023-02-04T12:51:46.584Z,13.67
2023-02-04T12:53:49.380Z,13.43
2023-02-04T12:55:52.108Z,14.50
2023-02-04T12:57:56.160Z,15.20
2023-02-04T13:00:00.284Z,14.17
2023-02-04T13:02:03.176Z,13.87
2023-02-04T13:04:06.594Z,16.23
2023-02-04T13:06:09.337Z,13.83
2023-02-04T13:08:13.315Z,14.03
2023-02-04T13:10:16.488Z,14.17
2023-02-04T13:12:19.221Z,15.40
2023-02-04T13:14:21.962Z,14.20
2023-02-04T13:16:24.812Z,14.27
2023-02-04T13:18:28.647Z,17.07
2023-02-04T13:20:31.421Z,15.13
2023-02-04T13:22:34.198Z,14.53
2023-02-04T13:24:38.409Z,13.17
2023-02-04T13:26:41.500Z,15.17
2023-02-04T13:28:44.247Z,17.87
2023-02-04T13:30:47.053Z,15.87
2023-02-04T13:32:50.354Z,14.40
2023-02-04T13:34:53.128Z,13.87
2023-02-04T13:36:55.869Z,12.30
2023-02-04T13:39:00.102Z,13.47
2023-02-04T13:41:04.655Z,14.90
2023-02-04T13:43:07.399Z,16.73
2023-02-04T13:45:12.500Z,15.23
2023-02-04T13:47:15.644Z,14.30
2023-02-04T13:49:18.385Z,13.97
2023-02-04T13:51:21.161Z,13.07
2023-02-04T13:53:24.756Z,14.90
2023-02-04T13:55:27.967Z,14.73
2023-02-04T13:57:34.440Z,15.63
2023-02-04T13:59:37.128Z,14.60
2023-02-04T14:01:40.102Z,16.00
2023-02-04T14:03:45.112Z,14.87
2023-02-04T14:05:47.819Z,16.10
2023-02-04T14:07:50.596Z,13.37
2023-02-04T14:09:53.322Z,15.63
2023-02-04T14:11:57.715Z,13.77
2023-02-04T14:14:02.292Z,15.90
2023-02-04T14:16:05.386Z,14.10
2023-02-04T14:18:08.262Z,14.90
2023-02-04T14:20:15.254Z,14.43
2023-02-04T14:22:18.123Z,16.60
2023-02-04T14:24:20.820Z,17.07
2023-02-04T14:26:23.640Z,13.37
2023-02-04T14:28:26.727Z,15.93
2023-02-04T14:30:31.272Z,16.27
2023-02-04T14:32:34.431Z,15.67
2023-02-04T14:34:37.165Z,14.00
2023-02-04T14:36:39.904Z,17.10
2023-02-04T14:38:42.655Z,15.70
2023-02-04T14:40:45.875Z,13.97
2023-02-04T14:42:49.100Z,13.80
2023-02-04T14:44:51.841Z,13.90
2023-02-04T14:46:55.861Z,14.53
2023-02-04T14:48:58.836Z,15.83
2023-02-04T14:51:01.970Z,14.53
2023-02-04T14:53:04.833Z,15.00
2023-02-04T14:55:08.914Z,13.80
2023-02-04T14:57:12.117Z,16.00
2023-02-04T14:59:15.336Z,14.67
2023-02-04T15:01:19.815Z,16.57
2023-02-04T15:03:23.817Z,13.67
2023-02-04T15:05:26.745Z,16.27
2023-02-04T15:07:30.262Z,13.53
2023-02-04T15:09:33.292Z,15.27
2023-02-04T15:11:36.592Z,13.70
2023-02-04T15:13:39.691Z,12.53
2023-02-04T15:15:42.794Z,13.13
2023-02-04T15:17:45.467Z,14.87
2023-02-04T15:19:49.389Z,16.77
2023-02-04T15:21:53.969Z,14.90
2023-02-04T15:23:56.977Z,15.77
2023-02-04T15:25:59.713Z,14.10
2023-02-04T15:28:02.424Z,14.83
2023-02-04T15:30:05.361Z,14.40
2023-02-04T15:32:09.765Z,16.53
2023-02-04T15:34:12.416Z,15.63
2023-02-04T15:36:16.429Z,16.00
2023-02-04T15:38:19.290Z,14.27
2023-02-04T15:40:25.131Z,16.20
2023-02-04T15:42:27.830Z,19.20
2023-02-04T15:44:30.720Z,17.30
2023-02-04T15:46:35.369Z,17.27
2023-02-04T15:48:38.091Z,18.30
2023-02-04T15:50:43.997Z,17.00
2023-02-04T15:52:48.158Z,20.60
2023-02-04T15:54:51.244Z,22.33
2023-02-04T15:56:53.920Z,19.70
2023-02-04T15:58:56.984Z,22.33
2023-02-04T16:00:59.979Z,20.20
2023-02-04T16:03:03.121Z,20.03
2023-02-04T16:05:07.105Z,24.10
2023-02-04T16:07:12.745Z,23.10
2023-02-04T16:09:17.007Z,24.83
2023-02-04T16:11:20.138Z,21.57
2023-02-04T16:13:25.926Z,21.33
2023-02-04T16:15:29.057Z,22.60
2023-02-04T16:17:31.910Z,21.10
2023-02-04T16:19:35.268Z,16.60
2023-02-04T16:21:37.953Z,22.63
2023-02-04T16:23:42.211Z,23.57
2023-02-04T16:25:47.584Z,20.10
2023-02-04T16:27:50.718Z,19.43
2023-02-04T16:29:55.325Z,21.73
2023-02-04T16:31:59.470Z,19.80
2023-02-04T16:34:02.973Z,19.50
2023-02-04T16:36:07.638Z,19.60
2023-02-04T16:38:10.546Z,22.40
2023-02-04T16:40:13.782Z,20.63
2023-02-04T16:42:19.273Z,21.33
2023-02-04T16:44:21.978Z,20.40
2023-02-04T16:46:24.923Z,20.20
2023-02-04T16:48:28.786Z,18.83
2023-02-04T16:50:32.314Z,22.27
2023-02-04T16:52:35.396Z,22.33
2023-02-04T16:54:38.390Z,23.23
2023-02-04T16:56:44.063Z,19.60
2023-02-04T16:58:50.761Z,19.20
2023-02-04T17:00:54.190Z,21.13
2023-02-04T17:02:57.341Z,21.90
2023-02-04T17:05:00.721Z,22.23
2023-02-04T17:07:04.055Z,16.70
2023-02-04T17:09:06.884Z,19.23
2023-02-04T17:11:20.687Z,19.70
2023-02-04T17:13:23.428Z,20.40
2023-02-04T17:15:27.899Z,19.63
2023-02-04T17:17:30.592Z,17.23
2023-02-04T17:19:33.452Z,20.40
2023-02-04T17:21:37.815Z,18.50
2023-02-04T17:23:40.750Z,19.90
2023-02-04T17:25:43.529Z,18.97
2023-02-04T17:27:46.316Z,17.73
2023-02-04T17:29:49.470Z,17.47
2023-02-04T17:31:53.828Z,20.60
2023-02-04T17:33:56.555Z,17.00
2023-02-04T17:35:59.751Z,17.13
2023-02-04T17:38:02.528Z,16.40
2023-02-04T17:40:05.987Z,14.53
2023-02-04T17:42:08.713Z,19.13
2023-02-04T17:44:16.884Z,16.37
2023-02-04T17:46:19.641Z,18.17
2023-02-04T17:48:23.712Z,17.03
2023-02-04T17:50:26.473Z,20.47
2023-02-04T17:52:30.830Z,15.07
2023-02-04T17:54:34.181Z,16.67
2023-02-04T17:56:36.981Z,19.80
2023-02-04T17:58:39.846Z,20.17
2023-02-04T18:00:43.424Z,19.67
2023-02-04T18:02:47.134Z,18.33
2023-02-04T18:04:52.264Z,18.97
2023-02-04T18:06:55.010Z,18.43
2023-02-04T18:09:02.044Z,15.73
2023-02-04T18:11:12.377Z,17.97
2023-02-04T18:13:16.268Z,19.03
2023-02-04T18:15:26.229Z,15.30
2023-02-04T18:17:28.950Z,15.67
2023-02-04T18:19:35.034Z,19.00
2023-02-04T18:21:39.022Z,14.73
2023-02-04T18:23:42.955Z,18.67
2023-02-04T18:25:45.837Z,13.47
2023-02-04T18:27:48.614Z,16.53
2023-02-04T18:29:52.943Z,16.47
2023-02-04T18:31:57.286Z,16.20
2023-02-04T18:34:00.489Z,18.10
2023-02-04T18:36:06.346Z,16.60
2023-02-04T18:38:22.379Z,16.43
2023-02-04T18:40:26.693Z,17.20
2023-02-04T18:42:29.886Z,20.83
2023-02-04T18:44:34.926Z,20.47
2023-02-04T18:46:48.351Z,17.03
2023-02-04T18:49:00.763Z,18.33
2023-02-04T18:51:04.076Z,20.13
2023-02-04T18:53:19.245Z,22.60
2023-02-04T18:55:27.401Z,17.60
2023-02-04T18:57:37.373Z,17.57
2023-02-04T18:59:40.483Z,18.10
2023-02-04T19:01:44.026Z,20.37
2023-02-04T19:03:49.431Z,20.00
2023-02-04T19:05:52.858Z,20.63
2023-02-04T19:08:00.475Z,26.60
2023-02-04T19:10:13.400Z,24.20
2023-02-04T19:12:22.414Z,21.63
2023-02-04T19:14:31.532Z,20.20
2023-02-04T19:16:35.610Z,26.30
2023-02-04T19:18:39.741Z,21.87
2023-02-04T19:20:43.249Z,21.03
2023-02-04T19:22:47.106Z,23.57
2023-02-04T19:24:50.167Z,20.77
2023-02-04T19:26:55.319Z,22.20
2023-02-04T19:29:00.812Z,23.63
2023-02-04T19:31:04.262Z,23.50
2023-02-04T19:33:15.120Z,22.20
2023-02-04T19:35:20.104Z,23.33
2023-02-04T19:37:24.250Z,24.23
2023-02-04T19:39:30.733Z,19.50
2023-02-04T19:41:38.524Z,22.50
2023-02-04T19:43:42.845Z,24.83
2023-02-04T19:45:47.723Z,24.70
2023-02-04T19:47:50.910Z,21.27
2023-02-04T19:50:01.338Z,21.73
2023-02-04T19:52:04.212Z,27.17
2023-02-04T19:54:13.108Z,26.83
2023-02-04T19:56:28.103Z,24.80
2023-02-04T19:58:39.999Z,27.30
2023-02-04T20:00:48.328Z,27.90
2023-02-04T20:02:51.739Z,26.73
2023-02-04T20:04:55.176Z,27.27
2023-02-04T20:06:57.913Z,26.73
2023-02-04T20:09:02.236Z,26.60
2023-02-04T20:11:32.954Z,26.40
2023-02-04T20:13:35.704Z,27.03
2023-02-04T20:15:38.522Z,27.37
2023-02-04T20:17:43.499Z,26.97
2023-02-04T20:19:46.595Z,29.73
2023-02-04T20:22:02.135Z,29.00
2023-02-04T20:24:09.073Z,29.00
2023-02-04T20:26:11.783Z,25.40
2023-02-04T20:28:21.963Z,26.67
2023-02-04T20:30:26.807Z,23.13
2023-02-04T20:32:30.185Z,26.83
2023-02-04T20:34:34.754Z,24.03
2023-02-04T20:36:41.051Z,28.30
2023-02-04T20:38:43.822Z,28.17
2023-02-04T20:40:46.834Z,28.30
2023-02-04T20:42:52.628Z,26.10
2023-02-04T20:44:55.515Z,28.13
2023-02-04T20:47:03.044Z,29.37
2023-02-04T20:49:18.716Z,27.50
2023-02-04T20:51:23.778Z,24.77
2023-02-04T20:53:27.871Z,27.70
2023-02-04T20:55:31.135Z,24.30
2023-02-04T20:57:34.390Z,28.30
2023-02-04T20:59:37.171Z,25.87
2023-02-04T21:01:40.718Z,25.50
2023-02-04T21:03:44.142Z,23.50
2023-02-04T21:05:49.372Z,23.57
2023-02-04T21:07:56.364Z,24.37
2023-02-04T21:09:59.719Z,24.10
2023-02-04T21:12:02.961Z,23.90
2023-02-04T21:14:06.149Z,24.90
2023-02-04T21:16:09.597Z,24.50
2023-02-04T21:18:12.362Z,24.80
2023-02-04T21:20:15.150Z,24.00
2023-02-04T21:22:18.231Z,23.93
2023-02-04T21:24:22.370Z,24.47
2023-02-04T21:26:25.109Z,23.63
2023-02-04T21:28:28.505Z,26.33
2023-02-04T21:30:31.578Z,24.20
2023-02-04T21:32:34.262Z,25.50
2023-02-04T21:34:36.972Z,24.80
2023-02-04T21:36:40.157Z,25.57
2023-02-04T21:38:42.951Z,23.80
2023-02-04T21:40:47.013Z,21.70
2023-02-04T21:42:49.920Z,23.43
2023-02-04T21:44:52.986Z,24.40
2023-02-04T21:46:55.701Z,23.00
2023-02-04T21:48:58.436Z,26.90
2023-02-04T21:51:01.121Z,23.97
2023-02-04T21:53:04.303Z,24.13
2023-02-04T21:55:07.504Z,22.63
2023-02-04T21:57:16.320Z,23.47
2023-02-04T21:59:20.525Z,23.43
2023-02-04T22:01:23.656Z,23.77
2023-02-04T22:03:26.524Z,21.40
2023-02-04T22:05:29.299Z,22.97
2023-02-04T22:07:31.995Z,20.93
2023-02-04T22:09:36.162Z,21.70
2023-02-04T22:11:38.869Z,20.70
2023-02-04T22:13:44.773Z,21.80
2023-02-04T22:15:49.003Z,24.67
2023-02-04T22:17:52.884Z,23.53
2023-02-04T22:19:55.578Z,22.73
2023-02-04T22:21:58.282Z,20.67
2023-02-04T22:24:00.934Z,24.03
2023-02-04T22:26:05.989Z,22.13
2023-02-04T22:28:09.273Z,22.57
2023-02-04T22:30:14.390Z,24.10
2023-02-04T22:32:17.069Z,22.43
2023-02-04T22:34:20.204Z,21.97
2023-02-04T22:36:23.025Z,22.27
2023-02-04T22:38:25.830Z,22.70
2023-02-04T22:40:28.692Z,22.30
2023-02-04T22:42:31.701Z,23.07
2023-02-04T22:44:34.432Z,21.27
2023-02-04T22:46:41.306Z,22.03
2023-02-04T22:48:44.049Z,21.77
2023-02-04T22:50:52.170Z,21.90
2023-02-04T22:52:54.977Z,22.17
2023-02-04T22:54:57.969Z,19.73
2023-02-04T22:57:00.948Z,23.03
2023-02-04T22:59:04.036Z,20.13
2023-02-04T23:01:06.882Z,21.17
2023-02-04T23:03:10.916Z,21.70
2023-02-04T23:05:13.660Z,17.70
2023-02-04T23:07:16.702Z,20.90
2023-02-04T23:09:19.502Z,21.30
2023-02-04T23:11:23.355Z,22.23
2023-02-04T23:13:26.167Z,20.67
2023-02-04T23:15:29.307Z,21.00
2023-02-04T23:17:32.207Z,19.03
2023-02-04T23:19:36.338Z,22.07
2023-02-04T23:21:39.116Z,20.70
2023-02-04T23:23:42.323Z,19.73
2023-02-04T23:25:45.039Z,22.20
2023-02-04T23:27:47.889Z,20.97
2023-02-04T23:29:50.665Z,22.10
2023-02-04T23:31:53.834Z,20.63
2023-02-04T23:33:56.620Z,20.00
2023-02-04T23:36:00.923Z,22.70
2023-02-04T23:38:03.827Z,18.93
2023-02-04T23:40:08.889Z,19.57
2023-02-04T23:42:11.654Z,19.93
2023-02-04T23:44:14.446Z,19.13
2023-02-04T23:46:17.193Z,20.40
2023-02-04T23:48:21.341Z,19.13
2023-02-04T23:50:24.092Z,19.50
2023-02-04T23:52:28.124Z,19.13
2023-02-04T23:54:30.982Z,17.50
2023-02-04T23:56:34.127Z,19.40
2023-02-04T23:58:36.870Z,19.20
